Portada
METAR-TAF:

METAR-TAF

Aeroports :

Dibrugarh, Índia

latitud: 27-29N, longitud: 095-01E, altitud: 110 m

Observació

L'informe es va fer fa 1 hora i 30 minuts, a les 12:00 UTC
Vent 5 kt del Nord-Est
Temperatura 24°C
Humitat 83%
Pressió 1009 hPa
Visibilitat: 3000 m
Escasses núvols a una alçada de 2000 ft
Cel ennuvolat a una alçada de 10000 ft
boirina

METAR: VEMN 221200Z 05005KT 3000 BR FEW020 BKN100 24/21 Q1009 NOSIG

Hora: 19:00 (13:30 UTC)

Pronòstic

L'informe es va fer fa 2 hores i 30 minuts, a les 11:00 UTC
Pronòstic vàlid del 22 a les 12 UTC al 22 a les 21 UTC
Vent 6 kt del Nord-Est
Visibilitat: 3000 m
Escasses núvols a una alçada de 2000 ft
Núvols disperses a una alçada de 10000 ft
calitja
Evolucionant progressivament
l' 22 a les 18 UTC al 22 a les 21 UTC
Vent 3 kt del Est/Nord-Est
Visibilitat: 1500 m
boirina

TAF: VEMN 221100Z 2212/2221 05006KT 3000 HZ FEW020 SCT100 BECMG 2218/2221 07003KT 1500 BR

Observacions i pronòstics meteorològics de més de 4000 aeroports (METAR i TAF).

Les estacions disponibles són els punts grocs i vermells al mapa.

Posi el ratolí al punt desitjat per veure el nom de l'estació.

Feu clic per veure les observacions i els pronòstics meteorològics.

Per canviar el mapa: feu clic els botons verds amb una creu de color negre per apropar; al botó verd amb un guió per allunyar la imatge; o en les fletxes verdes per a mapes adjacents.


METAR-TAF: